Time;durP1;ratioP1;P1;durP2;ratioP2;P2;SDS_P1;SDS_P2;PMS_P1;PMS_P2;Temp;Humidity;BMP_temperature;BMP_pressure;BME280_temperature;BME280_humidity;BME280_pressure;Samples;Min_cycle;Max_cycle;Signal;HPM_P1;HPM_P2
2023/10/26 00:01:46;;;;;;;34.63;16.42;;;;;;;-146.27;89.65;83541.41;5026723;28;20104;-75
2023/10/26 00:04:11;;;;;;;39.53;16.33;;;;;;;-146.27;89.83;83575.59;5035983;28;20031;-75
2023/10/26 00:06:37;;;;;;;30.83;16.60;;;;;;;-146.27;90.15;83561.53;5034661;28;20022;-75
2023/10/26 00:09:03;;;;;;;28.23;15.88;;;;;;;-146.27;89.84;83589.66;5022289;28;20128;-75
2023/10/26 00:11:30;;;;;;;32.33;17.15;;;;;;;-146.27;89.83;83547.44;5014851;28;20029;-74
2023/10/26 00:13:55;;;;;;;31.85;17.40;;;;;;;-146.27;90.04;83557.50;5013907;28;20649;-75
2023/10/26 00:16:21;;;;;;;32.97;17.77;;;;;;;-146.27;89.91;83549.47;5025126;28;20064;-75
2023/10/26 00:18:46;;;;;;;33.55;18.63;;;;;;;-146.27;89.95;83557.50;5015616;28;20505;-74
2023/10/26 00:21:11;;;;;;;38.83;18.15;;;;;;;-146.27;89.90;83571.56;5022402;28;20030;-74
2023/10/26 00:23:37;;;;;;;36.10;18.65;;;;;;;-146.27;89.94;83557.50;5016036;28;20029;-75
2023/10/26 00:26:02;;;;;;;35.55;17.02;;;;;;;-146.27;89.90;83527.34;5017131;28;20121;-74
2023/10/26 00:28:27;;;;;;;30.08;16.60;;;;;;;-146.27;89.72;83547.44;5028828;28;20029;-74
2023/10/26 00:30:53;;;;;;;28.95;16.00;;;;;;;-146.27;89.59;83569.56;5019413;28;20674;-75
2023/10/26 00:33:18;;;;;;;30.25;16.83;;;;;;;-146.27;89.77;83579.59;5010838;28;20440;-75
2023/10/26 00:35:43;;;;;;;28.75;15.88;;;;;;;-146.27;89.86;83551.47;5021966;28;20484;-75
2023/10/26 00:38:09;;;;;;;27.60;16.45;;;;;;;-146.27;90.00;83605.72;5029429;28;20389;-75
2023/10/26 00:40:34;;;;;;;33.08;18.13;;;;;;;-146.27;90.75;83535.41;5022970;28;20670;-75
2023/10/26 00:43:01;;;;;;;33.60;17.15;;;;;;;-146.27;90.53;83597.69;5029240;28;20374;-75
2023/10/26 00:45:28;;;;;;;32.17;17.50;;;;;;;-146.27;90.32;83617.78;5035819;28;20502;-76
2023/10/26 00:47:53;;;;;;;32.38;17.48;;;;;;;-146.27;89.91;83637.88;5025688;28;20087;-76
2023/10/26 00:50:19;;;;;;;32.35;15.85;;;;;;;-146.27;89.78;83623.81;5015867;28;20112;-74
2023/10/26 00:52:45;;;;;;;29.65;16.77;;;;;;;-146.27;90.38;83613.75;5014478;28;20589;-75
2023/10/26 00:55:11;;;;;;;28.80;15.43;;;;;;;-146.27;89.96;83633.84;5017560;28;20029;-75
2023/10/26 00:57:37;;;;;;;28.90;15.15;;;;;;;-146.27;89.60;83696.16;5018876;28;20037;-74
2023/10/26 01:00:04;;;;;;;24.80;15.85;;;;;;;-146.27;89.44;83657.97;5028673;28;20078;-74
2023/10/26 01:02:30;;;;;;;33.00;16.13;;;;;;;-146.27;89.63;83688.09;5031858;28;20059;-74
2023/10/26 01:04:55;;;;;;;28.08;16.15;;;;;;;-146.27;89.30;83674.03;5034475;28;20033;-74
2023/10/26 01:07:21;;;;;;;34.65;16.73;;;;;;;-146.27;89.75;83682.09;5020568;28;20029;-74
2023/10/26 01:09:47;;;;;;;41.72;16.27;;;;;;;-146.27;89.55;83694.13;5015059;28;20516;-73
2023/10/26 01:12:13;;;;;;;43.42;16.13;;;;;;;-146.27;89.80;83676.06;5013908;28;20422;-74
2023/10/26 01:14:39;;;;;;;33.40;14.75;;;;;;;-146.27;89.97;83657.97;5021074;28;20022;-75
2023/10/26 01:17:04;;;;;;;42.95;16.85;;;;;;;-146.27;89.75;83662.00;5028824;28;20416;-75
2023/10/26 01:19:46;;;;;;;35.55;15.30;;;;;;;-146.27;89.33;83686.09;5025886;28;20608;-75
2023/10/26 01:22:12;;;;;;;33.63;15.77;;;;;;;-146.27;89.46;83678.06;5027707;28;20064;-75
2023/10/26 01:24:38;;;;;;;37.65;14.93;;;;;;;-146.27;89.59;83682.09;5043459;28;20450;-75
2023/10/26 01:27:04;;;;;;;32.08;15.02;;;;;;;-146.27;89.51;83696.16;5021805;28;20040;-75
2023/10/26 01:29:30;;;;;;;36.58;14.73;;;;;;;-146.27;89.14;83726.28;5015266;28;20037;-75
2023/10/26 01:31:55;;;;;;;39.67;14.10;;;;;;;-146.27;89.18;83702.19;5015022;28;20025;-75
2023/10/26 01:34:21;;;;;;;23.50;13.40;;;;;;;-146.27;89.16;83744.38;5014768;28;20025;-75
2023/10/26 01:36:46;;;;;;;22.33;13.68;;;;;;;-146.27;89.00;83744.38;5012011;28;20116;-75
2023/10/26 01:39:13;;;;;;;25.40;13.57;;;;;;;-146.27;88.94;83746.38;5005306;28;20106;-75
2023/10/26 01:41:38;;;;;;;24.20;15.07;;;;;;;-146.27;89.34;83653.94;5020505;28;20028;-74
2023/10/26 01:44:04;;;;;;;22.63;14.10;;;;;;;-146.27;88.99;83736.34;5022570;28;20029;-74
2023/10/26 01:46:29;;;;;;;23.48;14.35;;;;;;;-146.27;89.08;83732.31;5027940;28;20092;-75
2023/10/26 01:48:55;;;;;;;23.98;14.63;;;;;;;-146.27;88.83;83790.59;5018964;28;20025;-74
2023/10/26 01:51:20;;;;;;;22.60;13.63;;;;;;;-146.27;88.87;83778.53;5014623;28;20029;-75
2023/10/26 01:53:45;;;;;;;23.33;14.43;;;;;;;-146.27;90.02;83756.44;5014605;28;20030;-75
2023/10/26 01:56:11;;;;;;;26.48;14.45;;;;;;;-146.27;89.68;83758.44;5012683;28;20065;-74
2023/10/26 01:58:36;;;;;;;21.02;13.23;;;;;;;-146.27;89.42;83810.69;5013255;28;20554;-75
2023/10/26 02:01:02;;;;;;;23.23;12.93;;;;;;;-146.27;89.09;83726.28;5015340;28;20486;-75
2023/10/26 02:03:27;;;;;;;22.30;13.27;;;;;;;-146.27;88.95;83774.53;5020517;28;20034;-75
2023/10/26 02:05:52;;;;;;;22.25;12.07;;;;;;;-146.27;89.25;83778.53;5028458;28;20505;-76
2023/10/26 02:08:18;;;;;;;21.52;12.93;;;;;;;-146.27;89.13;83774.53;5025105;28;20512;-75
2023/10/26 02:10:43;;;;;;;22.15;13.55;;;;;;;-146.27;89.02;83790.59;5019262;28;20692;-75
2023/10/26 02:13:09;;;;;;;26.63;14.02;;;;;;;-146.27;89.00;83718.25;5026369;28;20044;-75
2023/10/26 02:15:34;;;;;;;28.05;13.32;;;;;;;-146.27;89.71;83790.59;5028094;28;20556;-75
2023/10/26 02:18:00;;;;;;;19.90;12.40;;;;;;;-146.27;89.31;83708.22;5023789;28;20022;-75
2023/10/26 02:20:25;;;;;;;21.90;12.95;;;;;;;-146.27;89.67;83776.53;5027172;28;20159;-75
2023/10/26 02:22:50;;;;;;;19.83;12.95;;;;;;;-146.27;89.47;83754.44;5019300;28;20084;-74
2023/10/26 02:25:16;;;;;;;21.38;12.65;;;;;;;-146.27;89.29;83730.31;5036585;28;20052;-75
2023/10/26 02:27:41;;;;;;;27.20;13.98;;;;;;;-146.27;89.85;83746.38;5039605;28;20032;-75
2023/10/26 02:30:07;;;;;;;22.80;12.75;;;;;;;-146.27;89.20;83782.56;5017342;28;20140;-75
2023/10/26 02:32:33;;;;;;;20.20;11.98;;;;;;;-146.27;89.11;83772.50;5024027;28;20021;-75
2023/10/26 02:34:58;;;;;;;25.20;11.98;;;;;;;-146.27;89.18;83772.50;5025795;28;20105;-75
2023/10/26 02:37:24;;;;;;;20.88;13.13;;;;;;;-146.27;89.06;83756.44;5016024;28;20117;-74
2023/10/26 02:39:49;;;;;;;22.30;13.88;;;;;;;-146.27;89.26;83720.25;5031097;28;20100;-75
2023/10/26 02:42:14;;;;;;;24.38;13.55;;;;;;;-146.27;89.32;83790.59;5014281;28;20032;-74
2023/10/26 02:44:40;;;;;;;23.90;13.23;;;;;;;-146.27;88.98;83728.31;5012526;28;20049;-75
2023/10/26 02:47:05;;;;;;;20.98;13.43;;;;;;;-146.27;88.75;83760.44;5011664;28;20057;-75
2023/10/26 02:49:30;;;;;;;26.20;13.88;;;;;;;-146.27;88.78;83750.41;5024773;28;20072;-75
2023/10/26 02:51:57;;;;;;;21.67;12.93;;;;;;;-146.27;88.81;83764.47;5019443;28;20025;-75
2023/10/26 02:54:25;;;;;;;28.67;14.70;;;;;;;-146.27;88.85;83752.41;5030859;28;20041;-75
2023/10/26 02:56:50;;;;;;;21.17;13.18;;;;;;;-146.27;89.24;83766.47;5025784;28;20034;-76
2023/10/26 02:59:16;;;;;;;30.27;14.35;;;;;;;-146.27;90.53;83746.38;5029614;28;20491;-76
2023/10/26 03:01:41;;;;;;;27.45;14.73;;;;;;;-146.27;90.25;83738.34;5030610;28;20443;-75
2023/10/26 03:04:06;;;;;;;25.77;14.43;;;;;;;-146.27;89.69;83718.25;5033504;28;20560;-76
2023/10/26 03:06:39;;;;;;;25.60;14.88;;;;;;;-146.27;89.26;83770.50;5027296;28;20026;-75
2023/10/26 03:09:05;;;;;;;24.35;14.25;;;;;;;-146.27;89.00;83730.31;5026754;28;20034;-75
2023/10/26 03:11:35;;;;;;;23.40;14.13;;;;;;;-146.27;89.15;83738.34;5032429;28;20048;-76
2023/10/26 03:14:00;;;;;;;27.80;15.38;;;;;;;-146.27;89.40;83744.38;5020071;28;20045;-75
2023/10/26 03:16:26;;;;;;;24.02;14.43;;;;;;;-146.27;89.72;83722.28;5025352;28;20069;-75
2023/10/26 03:18:51;;;;;;;24.95;15.07;;;;;;;-146.27;89.53;83738.34;5024091;28;20104;-70
2023/10/26 03:21:18;;;;;;;25.63;13.40;;;;;;;-146.27;89.34;83730.31;5036254;28;20032;-70
2023/10/26 03:23:44;;;;;;;22.02;13.15;;;;;;;-146.27;88.84;83794.63;5033794;28;20501;-70
2023/10/26 03:26:10;;;;;;;26.67;13.25;;;;;;;-146.27;88.79;83756.44;5029686;28;20025;-70
2023/10/26 03:28:35;;;;;;;32.35;13.85;;;;;;;-146.27;88.78;83776.53;5024306;28;20033;-70
2023/10/26 03:31:01;;;;;;;22.10;13.13;;;;;;;-146.27;88.90;83798.63;5025869;28;20113;-70
2023/10/26 03:33:26;;;;;;;25.08;13.38;;;;;;;-146.27;88.83;83800.63;5020136;28;20506;-70
2023/10/26 03:35:51;;;;;;;22.38;13.52;;;;;;;-146.27;88.50;83788.59;5034069;28;20064;-69
2023/10/26 03:38:17;;;;;;;22.42;12.23;;;;;;;-146.27;88.65;83814.72;5039579;28;20033;-69
2023/10/26 03:40:42;;;;;;;22.10;12.82;;;;;;;-146.27;88.51;83782.56;5041766;28;20026;-70
2023/10/26 03:43:07;;;;;;;24.27;12.55;;;;;;;-146.27;88.59;83776.53;5022234;28;20025;-71
2023/10/26 03:45:33;;;;;;;21.33;12.45;;;;;;;-146.27;88.32;83808.69;5036260;28;20389;-74
2023/10/26 03:47:59;;;;;;;24.80;13.05;;;;;;;-146.27;88.41;83816.72;5020986;28;20442;-75
2023/10/26 03:50:24;;;;;;;20.08;12.32;;;;;;;-146.27;88.22;83830.78;5032024;28;20021;-75
2023/10/26 03:52:50;;;;;;;16.90;11.30;;;;;;;-146.27;88.26;83814.72;5038085;28;20083;-75
2023/10/26 03:55:15;;;;;;;20.80;11.32;;;;;;;-146.27;88.62;83846.84;5018718;28;20036;-75
2023/10/26 03:57:41;;;;;;;20.77;12.18;;;;;;;-146.27;88.59;83838.81;5026382;28;20203;-74
2023/10/26 04:00:09;;;;;;;20.85;12.20;;;;;;;-146.27;89.26;83830.78;5022310;28;20069;-75
2023/10/26 04:02:35;;;;;;;20.25;13.15;;;;;;;-146.27;89.08;83830.78;5026016;28;20485;-74
2023/10/26 04:05:00;;;;;;;21.25;12.82;;;;;;;-146.27;89.69;83826.75;5026206;28;20029;-76
2023/10/26 04:07:27;;;;;;;20.40;12.18;;;;;;;-146.27;88.83;83830.78;5028519;28;20061;-76
2023/10/26 04:09:52;;;;;;;21.25;11.82;;;;;;;-146.27;89.59;83810.69;5013898;28;20068;-74
2023/10/26 04:12:18;;;;;;;17.27;11.07;;;;;;;-146.27;90.58;83842.84;5024039;28;20033;-75
2023/10/26 04:14:43;;;;;;;21.13;12.55;;;;;;;-146.27;89.62;83816.72;5016443;28;20029;-74
2023/10/26 04:17:08;;;;;;;20.40;11.85;;;;;;;-146.27;90.02;83764.47;5022688;28;20118;-75
2023/10/26 04:19:34;;;;;;;26.73;12.68;;;;;;;-146.27;90.79;83780.53;5020661;28;20041;-76
2023/10/26 04:21:59;;;;;;;20.88;12.73;;;;;;;-146.27;90.40;83784.56;5031725;28;20067;-75
2023/10/26 04:24:25;;;;;;;24.40;12.45;;;;;;;-146.27;90.67;83786.56;5026309;28;20535;-76
2023/10/26 04:26:50;;;;;;;28.45;13.27;;;;;;;-146.27;89.51;83770.50;5034092;28;20478;-76
2023/10/26 04:29:15;;;;;;;26.38;13.07;;;;;;;-146.27;89.48;83820.75;5031045;28;20099;-76
2023/10/26 04:31:41;;;;;;;24.30;11.43;;;;;;;-146.27;89.20;83754.44;5022508;28;20129;-76
2023/10/26 04:34:06;;;;;;;24.55;11.52;;;;;;;-146.27;89.49;83798.63;5026839;28;20029;-75
2023/10/26 04:36:31;;;;;;;21.33;12.00;;;;;;;-146.27;90.03;83750.41;5029564;28;20033;-75
2023/10/26 04:38:57;;;;;;;62.10;11.02;;;;;;;-146.27;89.52;83812.69;5029045;28;20034;-75
2023/10/26 04:41:22;;;;;;;16.83;11.35;;;;;;;-146.27;89.68;83750.41;5026255;28;20025;-75
2023/10/26 04:43:48;;;;;;;38.83;11.82;;;;;;;-146.27;89.96;83800.63;5020086;28;20021;-75
2023/10/26 04:46:13;;;;;;;25.08;10.95;;;;;;;-146.27;89.03;83780.53;5014918;28;20021;-75
2023/10/26 04:48:39;;;;;;;17.73;11.05;;;;;;;-146.27;89.86;83806.66;5016335;28;20529;-75
2023/10/26 04:51:04;;;;;;;24.75;10.98;;;;;;;-146.27;89.75;83764.47;5016240;28;20476;-75
2023/10/26 04:53:30;;;;;;;23.40;10.40;;;;;;;-146.27;89.72;83778.53;5031009;28;20079;-74
2023/10/26 04:55:55;;;;;;;73.00;11.68;;;;;;;-146.27;89.05;83778.53;5021903;28;20047;-76
2023/10/26 04:58:21;;;;;;;56.90;11.55;;;;;;;-146.27;89.01;83810.69;5024868;28;20037;-74
2023/10/26 05:00:46;;;;;;;39.10;11.15;;;;;;;-146.27;89.44;83782.56;5021833;28;20029;-74
2023/10/26 05:03:11;;;;;;;98.55;11.30;;;;;;;-146.27;89.71;83838.81;5012877;28;20125;-75
2023/10/26 05:05:37;;;;;;;18.17;10.20;;;;;;;-146.27;89.22;83802.66;5011428;28;20500;-74
2023/10/26 05:08:03;;;;;;;29.05;10.27;;;;;;;-146.27;89.80;83794.63;5018330;28;20029;-74
2023/10/26 05:10:29;;;;;;;58.25;12.55;;;;;;;-146.27;89.36;83802.66;5017130;28;20513;-75
2023/10/26 05:12:54;;;;;;;36.25;11.45;;;;;;;-146.27;89.46;83782.56;5014495;28;20057;-74
2023/10/26 05:15:20;;;;;;;25.02;10.43;;;;;;;-146.27;89.50;83806.66;5023477;28;20036;-75
2023/10/26 05:17:45;;;;;;;59.25;11.77;;;;;;;-146.27;89.29;83814.72;5028278;28;20433;-75
2023/10/26 05:20:11;;;;;;;37.20;12.05;;;;;;;-146.27;89.29;83790.59;5010802;28;20091;-74
2023/10/26 05:22:37;;;;;;;76.55;12.00;;;;;;;-146.27;89.17;83792.59;5014885;28;20297;-74
2023/10/26 05:25:05;;;;;;;37.05;11.02;;;;;;;-146.27;89.37;83806.66;5016333;28;20034;-76
2023/10/26 05:27:32;;;;;;;21.73;10.82;;;;;;;-146.27;89.42;83794.63;5017299;28;20072;-75
2023/10/26 05:29:58;;;;;;;28.63;10.65;;;;;;;-146.27;89.35;83788.59;5014053;28;20021;-76
2023/10/26 05:32:23;;;;;;;43.72;11.25;;;;;;;-146.27;89.56;83800.63;5012209;28;20069;-75
2023/10/26 05:34:49;;;;;;;47.20;11.98;;;;;;;-146.27;89.48;83794.63;5019923;28;20026;-75
2023/10/26 05:37:14;;;;;;;16.75;11.23;;;;;;;-146.27;89.48;83814.72;5023633;28;20047;-75
2023/10/26 05:39:39;;;;;;;15.30;10.23;;;;;;;-146.27;89.28;83782.56;5034233;28;20110;-75
2023/10/26 05:42:05;;;;;;;44.78;11.75;;;;;;;-146.27;89.07;83768.50;5017102;28;20540;-75
2023/10/26 05:44:31;;;;;;;22.20;10.45;;;;;;;-146.27;89.30;83788.59;5016833;28;20699;-74
2023/10/26 05:46:57;;;;;;;54.13;12.68;;;;;;;-146.27;88.89;83754.44;5012962;28;20416;-74
2023/10/26 05:49:22;;;;;;;32.53;10.73;;;;;;;-146.27;88.54;83770.50;5014811;28;20037;-73
2023/10/26 05:51:48;;;;;;;60.65;10.90;;;;;;;-146.27;88.47;83818.72;5019850;28;20038;-72
2023/10/26 05:54:13;;;;;;;13.95;9.20;;;;;;;-146.27;88.78;83820.75;5027393;28;20024;-73
2023/10/26 05:56:38;;;;;;;77.88;11.02;;;;;;;-146.27;88.99;83780.53;5031000;28;20021;-78
2023/10/26 05:59:04;;;;;;;31.80;9.27;;;;;;;-146.27;89.12;83802.66;5025786;28;20056;-77
2023/10/26 06:01:30;;;;;;;24.10;10.50;;;;;;;-146.27;89.30;83810.69;5025619;28;20043;-78
2023/10/26 06:03:56;;;;;;;61.20;12.55;;;;;;;-146.27;89.26;83780.53;5028097;28;20036;-76
2023/10/26 06:06:21;;;;;;;24.13;9.73;;;;;;;-146.27;89.22;83806.66;5026163;28;20032;-75
2023/10/26 06:08:46;;;;;;;38.58;11.23;;;;;;;-146.27;89.55;83782.56;5021377;28;20036;-74
2023/10/26 06:11:12;;;;;;;20.20;10.90;;;;;;;-146.27;89.40;83770.50;5027367;28;20068;-77
2023/10/26 06:13:37;;;;;;;76.53;12.93;;;;;;;-146.27;89.21;83766.47;5025082;28;20067;-74
2023/10/26 06:16:03;;;;;;;27.58;10.68;;;;;;;-146.27;89.34;83786.56;5033793;28;20048;-75
2023/10/26 06:18:28;;;;;;;69.18;12.63;;;;;;;-146.27;89.51;83748.41;5021769;28;20095;-75
2023/10/26 06:20:59;;;;;;;41.65;11.80;;;;;;;-146.27;89.37;83742.38;5037201;28;20026;-75
2023/10/26 06:23:24;;;;;;;52.72;11.07;;;;;;;-146.27;89.45;83768.50;5043492;28;20504;-75
2023/10/26 06:25:57;;;;;;;161.48;14.75;;;;;;;-146.27;89.77;83736.34;5032499;28;20029;-76
2023/10/26 06:28:22;;;;;;;151.05;15.40;;;;;;;-146.27;89.99;83724.28;5033868;28;20117;-74
2023/10/26 06:30:47;;;;;;;91.97;13.38;;;;;;;-146.27;90.12;83760.44;5027893;28;20113;-75
2023/10/26 06:33:13;;;;;;;111.78;13.18;;;;;;;-146.27;89.98;83764.47;5036092;28;20029;-73
2023/10/26 06:35:38;;;;;;;70.80;12.00;;;;;;;-146.27;89.94;83712.22;5032625;28;20025;-74
2023/10/26 06:38:04;;;;;;;41.92;11.57;;;;;;;-146.27;89.98;83818.72;5031880;28;20485;-78
2023/10/26 06:40:29;;;;;;;69.85;16.00;;;;;;;-146.27;89.75;83706.19;5032028;28;20025;-78
2023/10/26 06:42:54;;;;;;;45.25;12.45;;;;;;;-146.27;89.97;83720.25;5037837;28;20025;-80
2023/10/26 06:45:20;;;;;;;24.55;11.25;;;;;;;-146.27;89.85;83730.31;5027838;28;20063;-78
2023/10/26 06:47:45;;;;;;;21.23;11.88;;;;;;;-146.27;90.18;83734.31;5032799;28;20124;-78
2023/10/26 06:50:10;;;;;;;65.55;13.43;;;;;;;-146.27;89.99;83734.31;5031517;28;20075;-77
2023/10/26 06:52:36;;;;;;;145.70;13.75;;;;;;;-146.27;90.23;83706.19;5033054;28;20101;-78
2023/10/26 06:55:01;;;;;;;52.25;13.40;;;;;;;-146.27;90.10;83686.09;5045312;28;20622;-77
2023/10/26 06:57:27;;;;;;;90.43;14.43;;;;;;;-146.27;90.00;83599.69;5039228;28;20024;-80
2023/10/26 06:59:52;;;;;;;40.55;13.50;;;;;;;-146.27;90.28;83670.03;5053284;28;20052;-77
2023/10/26 07:02:18;;;;;;;58.67;14.02;;;;;;;-146.27;90.34;83674.03;5031573;28;20017;-77
2023/10/26 07:04:43;;;;;;;28.60;13.48;;;;;;;-146.27;90.04;83686.09;5034375;28;21800;-77
2023/10/26 07:07:09;;;;;;;31.05;14.25;;;;;;;-146.27;90.23;83696.16;5040604;28;20021;-78
2023/10/26 07:09:35;;;;;;;115.53;15.90;;;;;;;-146.27;90.46;83662.00;5031746;28;20017;-79
2023/10/26 07:12:01;;;;;;;54.50;14.95;;;;;;;-146.27;90.38;83643.91;5032183;28;20036;-79
2023/10/26 07:14:27;;;;;;;36.05;14.73;;;;;;;-146.27;90.38;83643.91;5031390;28;20037;-75
2023/10/26 07:16:52;;;;;;;40.60;14.77;;;;;;;-146.27;90.29;83645.91;5032929;28;20103;-74
2023/10/26 07:19:17;;;;;;;167.90;17.77;;;;;;;-146.27;90.17;83627.81;5032664;28;20038;-74
2023/10/26 07:21:44;;;;;;;75.47;16.38;;;;;;;-146.27;90.53;83597.69;5031197;28;20033;-76
2023/10/26 07:24:10;;;;;;;58.15;15.30;;;;;;;-146.27;90.52;83601.72;5031258;28;20489;-75
2023/10/26 07:26:35;;;;;;;245.30;22.00;;;;;;;-146.27;90.77;83625.81;5031289;28;20100;-75
2023/10/26 07:29:01;;;;;;;190.45;20.02;;;;;;;-146.27;90.77;83577.59;5029861;28;20048;-75
2023/10/26 07:31:26;;;;;;;85.80;17.13;;;;;;;-146.27;90.55;83591.66;5032470;28;20481;-75
2023/10/26 07:33:51;;;;;;;133.85;17.92;;;;;;;-146.27;90.58;83565.53;5031502;28;20501;-75
2023/10/26 07:36:17;;;;;;;37.20;16.05;;;;;;;-146.27;90.45;83573.56;5032835;28;20429;-75
2023/10/26 07:38:42;;;;;;;114.20;18.73;;;;;;;-146.27;90.49;83595.69;5032323;28;20036;-76
2023/10/26 07:41:08;;;;;;;60.63;16.33;;;;;;;-146.27;90.56;83645.91;5031563;28;20458;-76
2023/10/26 07:43:37;;;;;;;258.30;19.70;;;;;;;-146.27;90.53;83537.41;5031090;28;20389;-76
2023/10/26 07:46:03;;;;;;;45.95;16.38;;;;;;;-146.27;90.45;83541.41;5032595;28;20033;-76
2023/10/26 07:48:28;;;;;;;43.30;15.32;;;;;;;-146.27;90.54;83537.41;5032611;28;20174;-76
2023/10/26 07:50:55;;;;;;;44.88;14.63;;;;;;;-146.27;90.37;83509.28;5030962;28;20054;-75
2023/10/26 07:53:21;;;;;;;47.05;15.82;;;;;;;-146.27;90.19;83523.34;5030515;28;20039;-76
2023/10/26 07:55:47;;;;;;;83.28;16.42;;;;;;;-146.27;90.34;83497.22;5031877;28;20091;-76
2023/10/26 07:58:12;;;;;;;92.35;17.63;;;;;;;-146.27;90.28;83505.25;5032004;28;20572;-74
2023/10/26 08:00:38;;;;;;;34.95;16.88;;;;;;;-146.27;90.29;83501.22;5037985;28;20023;-76
2023/10/26 08:03:03;;;;;;;38.72;14.93;;;;;;;-146.27;90.27;83489.19;5029510;28;20371;-76
2023/10/26 08:05:29;;;;;;;43.17;14.60;;;;;;;-146.27;90.44;83515.31;5032374;28;20061;-75
2023/10/26 08:07:54;;;;;;;39.92;15.45;;;;;;;-146.27;90.29;83471.09;5031966;28;20033;-76
2023/10/26 08:10:20;;;;;;;41.90;16.00;;;;;;;-146.27;90.42;83485.16;5029065;28;20038;-75
2023/10/26 08:12:45;;;;;;;45.10;15.63;;;;;;;-146.27;90.25;83501.22;5027830;28;20051;-76
2023/10/26 08:15:10;;;;;;;58.30;15.95;;;;;;;-146.27;90.42;83525.34;5030344;28;20032;-75
2023/10/26 08:17:36;;;;;;;35.38;15.73;;;;;;;-146.27;90.35;83485.16;5031271;28;20059;-75
2023/10/26 08:20:07;;;;;;;48.35;17.33;;;;;;;-146.27;90.53;83493.19;5044891;28;20051;-76
2023/10/26 08:22:33;;;;;;;117.97;19.52;;;;;;;-146.27;90.74;83400.78;5035304;28;20030;-75
2023/10/26 08:24:59;;;;;;;185.82;21.75;;;;;;;-146.27;90.65;83477.13;5028581;28;20021;-76
2023/10/26 08:27:25;;;;;;;128.38;16.08;;;;;;;-146.27;90.53;83446.97;5052273;28;20025;-76
2023/10/26 08:29:51;;;;;;;44.72;15.55;;;;;;;-146.27;90.66;83491.19;5050555;28;20170;-76
2023/10/26 08:32:16;;;;;;;67.85;14.98;;;;;;;-146.27;90.51;83461.06;5050645;28;20025;-76
2023/10/26 08:34:41;;;;;;;74.13;17.17;;;;;;;-146.27;90.44;83489.19;5049884;28;20017;-76
2023/10/26 08:37:07;;;;;;;46.03;16.17;;;;;;;-146.27;90.56;83475.13;5047298;28;20643;-77
2023/10/26 08:39:32;;;;;;;67.80;17.50;;;;;;;-146.27;90.51;83473.09;5031187;28;20108;-76
2023/10/26 08:42:01;;;;;;;47.28;14.98;;;;;;;-146.27;90.33;83412.81;5029758;28;20459;-76
2023/10/26 08:44:28;;;;;;;57.00;16.13;;;;;;;-146.27;90.52;83465.06;5031896;28;20021;-76
2023/10/26 08:46:58;;;;;;;73.00;16.83;;;;;;;-146.27;90.73;83424.88;5031869;28;20029;-76
2023/10/26 08:49:27;;;;;;;94.05;16.92;;;;;;;-146.27;90.72;83398.75;5031759;28;20108;-76
2023/10/26 08:51:52;;;;;;;50.60;16.48;;;;;;;-146.27;90.45;83378.66;5029427;28;20032;-77
2023/10/26 08:54:18;;;;;;;43.60;16.65;;;;;;;-146.27;90.14;83374.66;5023531;28;20116;-76
2023/10/26 08:56:43;;;;;;;50.10;15.88;;;;;;;-146.27;90.32;83408.81;5030855;28;20470;-76
2023/10/26 08:59:09;;;;;;;59.00;18.25;;;;;;;-146.27;90.37;83398.75;5031530;28;20037;-76
2023/10/26 09:01:34;;;;;;;57.38;20.20;;;;;;;-146.27;90.22;83388.72;5031471;28;20439;-76
2023/10/26 09:04:10;;;;;;;63.28;18.40;;;;;;;-146.27;90.42;83376.66;5030829;28;20052;-76
2023/10/26 09:06:43;;;;;;;54.75;18.98;;;;;;;-146.27;90.21;83348.53;5030225;28;20026;-76
2023/10/26 09:09:08;;;;;;;61.95;19.15;;;;;;;-146.27;90.32;83314.38;5030495;28;20040;-75
2023/10/26 09:11:33;;;;;;;66.57;18.75;;;;;;;-146.27;90.17;83342.50;5030084;28;20882;-76
2023/10/26 09:14:18;;;;;;;65.78;19.60;;;;;;;-146.27;90.47;83322.41;5030022;28;20029;-77
2023/10/26 09:16:45;;;;;;;63.70;21.00;;;;;;;-146.27;90.49;83344.50;5041918;28;20045;-76
2023/10/26 09:19:18;;;;;;;60.55;18.95;;;;;;;-146.27;90.24;83376.66;5050166;28;20447;-76
2023/10/26 09:21:57;;;;;;;69.90;21.02;;;;;;;-146.27;90.21;83284.22;5044056;28;20170;-77
2023/10/26 09:24:26;;;;;;;59.58;18.27;;;;;;;-146.27;90.26;83330.44;5049162;28;20126;-74
2023/10/26 09:26:53;;;;;;;71.93;20.45;;;;;;;-146.27;90.31;83314.38;5052431;28;20417;-75
2023/10/26 09:29:37;;;;;;;71.75;20.67;;;;;;;-146.27;90.39;83330.44;5051894;28;20074;-75
2023/10/26 09:32:03;;;;;;;86.20;22.38;;;;;;;-146.27;90.61;83296.28;5053460;28;20021;-75
2023/10/26 09:34:28;;;;;;;84.05;22.25;;;;;;;-146.27;90.70;83278.19;5053087;28;20032;-75
2023/10/26 09:37:03;;;;;;;81.57;21.60;;;;;;;-146.27;90.77;83324.41;5036393;28;20034;-75
2023/10/26 09:39:32;;;;;;;83.13;21.33;;;;;;;-146.27;90.44;83324.41;5012012;28;20060;-75
2023/10/26 09:41:59;;;;;;;84.00;23.30;;;;;;;-146.27;90.51;83278.19;5015844;28;20468;-75
2023/10/26 09:44:24;;;;;;;88.00;21.55;;;;;;;-146.27;90.56;83316.38;5032877;28;20550;-75
2023/10/26 09:46:50;;;;;;;79.13;22.25;;;;;;;-146.27;90.28;83244.03;5032662;28;20029;-75
2023/10/26 09:49:19;;;;;;;69.40;21.63;;;;;;;-146.27;90.40;83288.25;5032743;28;20500;-75
2023/10/26 09:51:45;;;;;;;85.47;24.00;;;;;;;-146.27;90.46;83256.09;5032292;28;20076;-75
2023/10/26 09:54:13;;;;;;;84.75;23.20;;;;;;;-146.27;90.39;83314.38;5029682;28;20087;-75
2023/10/26 09:56:44;;;;;;;66.97;20.75;;;;;;;-146.27;90.29;83270.16;5011294;28;20088;-74
2023/10/26 09:59:10;;;;;;;73.95;23.02;;;;;;;-146.27;90.09;83264.13;5023083;28;20029;-77
2023/10/26 10:01:39;;;;;;;70.68;22.42;;;;;;;-146.27;90.27;83296.28;5031513;28;20133;-75
2023/10/26 10:04:13;;;;;;;77.75;24.35;;;;;;;-146.27;90.71;83280.22;5020098;28;20052;-76
2023/10/26 10:06:52;;;;;;;74.68;23.20;;;;;;;-146.27;90.69;83219.94;5030771;28;20029;-76
2023/10/26 10:09:28;;;;;;;73.35;23.20;;;;;;;-146.27;90.60;83171.72;5033264;28;20029;-75
2023/10/26 10:12:13;;;;;;;75.90;23.23;;;;;;;-146.27;90.38;83139.56;5029385;28;20068;-75
2023/10/26 10:14:48;;;;;;;71.07;22.42;;;;;;;-146.27;90.53;83149.63;5031951;28;20021;-76
2023/10/26 10:17:18;;;;;;;76.22;22.80;;;;;;;-146.27;90.40;83117.47;5030072;28;20072;-75
2023/10/26 10:20:07;;;;;;;59.33;20.92;;;;;;;-146.27;90.53;83087.31;5030151;28;20057;-78
2023/10/26 10:22:39;;;;;;;57.00;20.50;;;;;;;-146.27;90.00;83065.22;5010847;28;20529;-79
2023/10/26 10:25:11;;;;;;;54.25;21.48;;;;;;;-146.27;89.72;83079.28;5011063;28;20022;-79
2023/10/26 10:27:37;;;;;;;51.58;21.33;;;;;;;-146.27;89.64;83019.03;5011033;28;20034;-79
2023/10/26 10:30:06;;;;;;;51.38;22.25;;;;;;;-146.27;89.28;82978.84;5011021;28;20033;-79
2023/10/26 10:32:46;;;;;;;48.30;20.83;;;;;;;-146.27;89.27;82990.88;5010747;28;20109;-79
2023/10/26 10:35:43;;;;;;;55.38;20.70;;;;;;;-146.27;89.13;82970.81;5032342;28;20083;-81
2023/10/26 10:38:20;;;;;;;44.70;20.08;;;;;;;-146.27;88.89;82998.94;5044551;28;20037;-78
2023/10/26 10:40:54;;;;;;;50.63;21.35;;;;;;;-146.27;89.29;82914.53;5030144;28;20461;-79
2023/10/26 10:43:40;;;;;;;44.40;19.10;;;;;;;-146.27;88.09;82934.63;5027013;28;20033;-79
2023/10/26 10:46:12;;;;;;;47.70;20.98;;;;;;;-146.27;88.57;82834.19;5041860;28;20020;-79
2023/10/26 10:48:58;;;;;;;37.15;17.38;;;;;;;-146.27;87.94;82721.69;5042186;28;20061;-79
2023/10/26 10:51:31;;;;;;;33.33;17.00;;;;;;;-146.27;86.94;82633.28;5045011;28;20108;-79
2023/10/26 10:53:57;;;;;;;30.23;15.98;;;;;;;-146.27;85.71;82601.16;5036318;28;20025;-79
2023/10/26 10:56:23;;;;;;;29.25;15.02;;;;;;;-146.27;84.21;82571.00;5036438;28;20036;-79
2023/10/26 10:58:50;;;;;;;26.48;14.63;;;;;;;-146.27;82.55;82569.00;5037535;28;20079;-79
2023/10/26 11:01:22;;;;;;;24.05;13.93;;;;;;;-146.27;80.40;82510.75;5040173;28;20037;-79